createdAt,value
2023-04-14T00:00:04.981Z,-2.55
2023-04-14T00:02:40.333Z,-2.46
2023-04-14T00:05:08.629Z,-2.51
2023-04-14T00:07:36.241Z,-2.32
2023-04-14T00:10:03.982Z,-2.53
2023-04-14T00:12:31.671Z,-2.85
2023-04-14T00:14:59.193Z,-2.83
2023-04-14T00:17:26.976Z,-2.98
2023-04-14T00:19:54.400Z,-2.94
2023-04-14T00:22:22.448Z,-2.97
2023-04-14T00:24:51.081Z,-3.11
2023-04-14T00:27:18.584Z,-2.97
2023-04-14T00:29:46.143Z,-3.07
2023-04-14T00:32:13.735Z,-2.91
2023-04-14T00:34:41.177Z,-2.98
2023-04-14T00:37:08.608Z,-3.13
2023-04-14T00:39:36.675Z,-3.05
2023-04-14T00:42:04.844Z,-3.24
2023-04-14T00:44:32.401Z,-3.04
2023-04-14T00:47:02.208Z,-3.18
2023-04-14T00:49:30.294Z,-3.04
2023-04-14T00:51:58.478Z,-3.00
2023-04-14T00:54:28.294Z,-2.92
2023-04-14T00:56:58.247Z,-3.01
2023-04-14T00:59:26.108Z,-2.95
2023-04-14T01:01:54.448Z,-3.00
2023-04-14T01:04:22.942Z,-3.14
2023-04-14T01:06:50.655Z,-3.21
2023-04-14T01:09:18.209Z,-3.15
2023-04-14T01:12:16.337Z,-3.01
2023-04-14T01:15:03.811Z,-3.06
2023-04-14T01:17:46.201Z,-2.86
2023-04-14T01:20:45.198Z,-2.75
2023-04-14T01:23:21.698Z,-3.02
2023-04-14T01:26:10.719Z,-2.77
2023-04-14T01:29:04.497Z,-2.93
2023-04-14T01:31:38.801Z,-3.05
2023-04-14T01:34:48.253Z,-3.20
2023-04-14T01:37:19.553Z,-3.50
2023-04-14T01:39:53.320Z,-3.61
2023-04-14T01:42:30.743Z,-3.40
2023-04-14T01:45:18.183Z,-3.16
2023-04-14T01:47:50.973Z,-3.22
2023-04-14T01:50:21.178Z,-3.43
2023-04-14T01:52:54.541Z,-3.68
2023-04-14T01:55:27.255Z,-3.64
2023-04-14T01:57:58.216Z,-3.86
2023-04-14T02:00:27.190Z,-3.86
2023-04-14T02:02:56.181Z,-3.85
2023-04-14T02:05:25.716Z,-3.90
2023-04-14T02:07:55.092Z,-3.69
2023-04-14T02:10:24.839Z,-3.38
2023-04-14T02:12:58.537Z,-3.31
2023-04-14T02:15:26.508Z,-3.35
2023-04-14T02:17:57.359Z,-3.00
2023-04-14T02:20:28.398Z,-2.84
2023-04-14T02:22:56.025Z,-2.70
2023-04-14T02:25:26.926Z,-2.44
2023-04-14T02:28:01.387Z,-1.68
2023-04-14T02:30:33.022Z,-0.76
2023-04-14T02:33:10.685Z,0.33
2023-04-14T02:36:02.430Z,1.14
2023-04-14T02:38:30.173Z,2.11
2023-04-14T02:40:59.742Z,2.86
2023-04-14T02:43:32.106Z,3.64
2023-04-14T02:46:05.771Z,4.45
2023-04-14T02:48:35.242Z,4.97
2023-04-14T02:51:05.905Z,5.62
2023-04-14T02:53:34.924Z,6.23
2023-04-14T02:56:16.159Z,7.09
2023-04-14T02:58:47.061Z,7.64
2023-04-14T03:01:16.910Z,8.06
2023-04-14T03:03:44.671Z,8.50
2023-04-14T03:06:16.249Z,9.11
2023-04-14T03:08:44.792Z,9.55
2023-04-14T03:11:17.156Z,9.63
2023-04-14T03:13:47.026Z,10.09
2023-04-14T03:16:16.187Z,10.58
2023-04-14T03:18:44.949Z,10.88
2023-04-14T03:21:16.903Z,11.19
2023-04-14T03:23:46.742Z,11.49
2023-04-14T03:26:21.572Z,11.75
2023-04-14T03:28:51.232Z,12.04
2023-04-14T03:31:21.522Z,12.37
2023-04-14T03:33:57.583Z,12.48
2023-04-14T03:36:33.313Z,12.86
2023-04-14T03:39:05.187Z,13.23
2023-04-14T03:41:39.030Z,13.84
2023-04-14T03:44:15.883Z,14.18
2023-04-14T03:46:47.077Z,14.55
2023-04-14T03:49:17.854Z,14.95
2023-04-14T03:51:49.961Z,15.04
2023-04-14T03:54:19.660Z,15.29
2023-04-14T03:56:49.367Z,15.67
2023-04-14T03:59:19.657Z,15.89
2023-04-14T04:01:48.353Z,16.06
2023-04-14T04:04:17.101Z,16.45
2023-04-14T04:06:45.112Z,16.74
2023-04-14T04:09:18.387Z,16.82
2023-04-14T04:11:48.068Z,16.82
2023-04-14T04:14:18.175Z,17.13
2023-04-14T04:16:50.004Z,17.31
2023-04-14T04:19:22.359Z,17.30
2023-04-14T04:21:52.047Z,17.43
2023-04-14T04:24:23.611Z,17.60
2023-04-14T04:26:54.567Z,17.43
2023-04-14T04:29:23.842Z,17.37
2023-04-14T04:31:54.489Z,17.63
2023-04-14T04:34:26.346Z,17.55
2023-04-14T04:36:55.173Z,17.60
2023-04-14T04:39:23.120Z,17.66
2023-04-14T04:41:52.241Z,17.52
2023-04-14T04:44:20.603Z,17.54
2023-04-14T04:46:55.647Z,17.35
2023-04-14T04:49:28.803Z,17.35
2023-04-14T04:52:02.101Z,17.40
2023-04-14T04:54:29.897Z,17.59
2023-04-14T04:56:58.993Z,17.77
2023-04-14T04:59:26.886Z,18.12
2023-04-14T05:01:54.558Z,18.22
2023-04-14T05:04:22.277Z,18.43
2023-04-14T05:06:50.071Z,18.75
2023-04-14T05:09:17.549Z,18.83
2023-04-14T05:11:45.023Z,18.91
2023-04-14T05:14:12.544Z,18.64
2023-04-14T05:16:40.001Z,18.67
2023-04-14T05:19:07.477Z,18.63
2023-04-14T05:21:34.906Z,18.78
2023-04-14T05:24:02.711Z,19.29
2023-04-14T05:26:51.676Z,19.71
2023-04-14T05:29:17.603Z,19.92
2023-04-14T05:31:45.123Z,20.27
2023-04-14T05:34:12.565Z,20.16
2023-04-14T05:36:39.991Z,20.39
2023-04-14T05:39:07.572Z,20.15
2023-04-14T05:41:34.968Z,20.45
2023-04-14T05:44:04.206Z,20.44
2023-04-14T05:46:32.439Z,20.61
2023-04-14T05:49:01.529Z,20.80
2023-04-14T05:51:29.218Z,21.09
2023-04-14T05:53:56.758Z,21.29
2023-04-14T05:56:24.244Z,21.70
2023-04-14T05:58:54.628Z,22.02
2023-04-14T06:01:22.171Z,22.13
2023-04-14T06:03:49.971Z,22.20
2023-04-14T06:06:17.906Z,22.53
2023-04-14T06:08:46.454Z,22.43
2023-04-14T06:11:14.699Z,22.63
2023-04-14T06:13:42.348Z,22.79
2023-04-14T06:16:09.867Z,22.89
2023-04-14T06:18:37.392Z,22.81
2023-04-14T06:21:05.053Z,22.81
2023-04-14T06:23:32.940Z,22.93
2023-04-14T06:26:00.592Z,23.09
2023-04-14T06:28:28.352Z,23.18
2023-04-14T06:30:55.879Z,23.14
2023-04-14T06:33:23.498Z,23.03
2023-04-14T06:35:51.014Z,22.83
2023-04-14T06:38:18.580Z,22.86
2023-04-14T06:40:46.131Z,23.02
2023-04-14T06:43:15.237Z,23.13
2023-04-14T06:45:42.788Z,23.29
2023-04-14T06:48:11.737Z,23.54
2023-04-14T06:50:39.423Z,23.34
2023-04-14T06:53:07.430Z,23.38
2023-04-14T06:55:36.436Z,23.59
2023-04-14T06:58:04.144Z,23.78
2023-04-14T07:00:31.922Z,23.73
2023-04-14T07:02:59.772Z,23.57
2023-04-14T07:05:27.428Z,23.55
2023-04-14T07:07:54.954Z,23.63
2023-04-14T07:10:22.453Z,23.72
2023-04-14T07:12:49.920Z,23.74
2023-04-14T07:15:17.561Z,23.52
2023-04-14T07:17:45.122Z,23.17
2023-04-14T07:20:12.948Z,22.61
2023-04-14T07:22:41.005Z,22.13
2023-04-14T07:25:08.804Z,21.58
2023-04-14T07:27:36.392Z,21.23
2023-04-14T07:30:04.206Z,20.77
2023-04-14T07:32:31.949Z,20.10
2023-04-14T07:34:59.851Z,19.40
2023-04-14T07:37:27.330Z,18.86
2023-04-14T07:39:54.800Z,18.40
2023-04-14T07:42:22.230Z,17.63
2023-04-14T07:44:49.700Z,17.25
2023-04-14T07:47:17.479Z,16.96
2023-04-14T07:49:45.001Z,16.69
2023-04-14T07:52:12.859Z,16.25
2023-04-14T07:54:40.389Z,15.49
2023-04-14T07:57:10.310Z,15.13
2023-04-14T07:59:38.586Z,14.91
2023-04-14T08:02:06.358Z,14.88
2023-04-14T08:04:33.976Z,14.62
2023-04-14T08:07:01.788Z,14.35
2023-04-14T08:09:29.348Z,13.68
2023-04-14T08:11:59.735Z,13.31
2023-04-14T08:14:27.249Z,13.32
2023-04-14T08:16:54.705Z,13.31
2023-04-14T08:19:22.214Z,12.47
2023-04-14T08:21:49.667Z,12.84
2023-04-14T08:24:17.136Z,12.46
2023-04-14T08:26:44.612Z,12.56
2023-04-14T08:29:12.056Z,12.51
2023-04-14T08:31:39.616Z,12.33
2023-04-14T08:34:07.204Z,12.02
2023-04-14T08:36:34.823Z,11.82
2023-04-14T08:39:02.639Z,11.56
2023-04-14T08:41:34.678Z,11.90
2023-04-14T08:44:02.181Z,10.85
2023-04-14T08:46:31.587Z,9.99
2023-04-14T08:49:07.936Z,9.67
2023-04-14T08:51:39.681Z,9.16
2023-04-14T08:54:10.513Z,9.12
2023-04-14T08:56:42.156Z,9.06
2023-04-14T08:59:11.598Z,9.19
2023-04-14T09:01:39.751Z,9.33
2023-04-14T09:04:08.814Z,9.16
2023-04-14T09:06:36.822Z,8.24
2023-04-14T09:09:09.132Z,8.24
2023-04-14T09:11:37.919Z,8.25
2023-04-14T09:14:06.376Z,7.89
2023-04-14T09:16:34.089Z,7.89
2023-04-14T09:19:06.671Z,7.68
2023-04-14T09:21:52.709Z,7.57
2023-04-14T09:24:32.459Z,7.38
2023-04-14T09:27:07.813Z,7.08
2023-04-14T09:29:36.801Z,6.61
2023-04-14T09:32:06.517Z,6.26
2023-04-14T09:34:34.085Z,6.20
2023-04-14T09:37:10.110Z,6.60
2023-04-14T09:39:49.767Z,7.17
2023-04-14T09:42:17.922Z,6.81
2023-04-14T09:44:59.403Z,6.40
2023-04-14T09:47:27.027Z,5.75
2023-04-14T09:50:00.447Z,5.73
2023-04-14T09:52:42.171Z,5.60
2023-04-14T09:55:14.260Z,5.64
2023-04-14T09:57:43.330Z,5.65
2023-04-14T10:00:18.216Z,5.83
2023-04-14T10:02:58.338Z,5.54
2023-04-14T10:05:32.157Z,5.48
2023-04-14T10:08:06.954Z,5.46
2023-04-14T10:10:34.585Z,5.72
2023-04-14T10:13:02.456Z,5.75
2023-04-14T10:15:30.052Z,5.14
2023-04-14T10:17:57.664Z,5.20
2023-04-14T10:20:25.619Z,5.07
2023-04-14T10:22:55.132Z,5.20
2023-04-14T10:25:24.405Z,5.14
2023-04-14T10:27:52.446Z,5.19
2023-04-14T10:30:20.013Z,5.02
2023-04-14T10:32:48.278Z,5.09
2023-04-14T10:35:18.793Z,5.19
2023-04-14T10:37:53.058Z,5.26
2023-04-14T10:40:22.857Z,4.96
2023-04-14T10:42:55.329Z,4.88
2023-04-14T10:45:26.976Z,4.82
2023-04-14T10:47:56.606Z,4.85
2023-04-14T10:50:25.699Z,4.84
2023-04-14T10:52:57.099Z,5.11
2023-04-14T10:55:28.491Z,4.73
2023-04-14T10:58:09.638Z,4.75
2023-04-14T11:00:40.106Z,4.43
2023-04-14T11:03:12.178Z,4.79
2023-04-14T11:05:44.891Z,4.80
2023-04-14T11:08:17.656Z,4.55
2023-04-14T11:10:52.042Z,4.61
2023-04-14T11:13:19.800Z,4.20
2023-04-14T11:15:51.587Z,4.27
2023-04-14T11:18:45.377Z,4.69
2023-04-14T11:21:16.841Z,4.24
2023-04-14T11:23:44.833Z,3.97
2023-04-14T11:26:16.342Z,3.86
2023-04-14T11:28:48.025Z,3.87
2023-04-14T11:31:17.432Z,4.27
2023-04-14T11:33:45.283Z,4.29
2023-04-14T11:36:13.833Z,4.14
2023-04-14T11:38:42.906Z,4.17
2023-04-14T11:41:11.298Z,4.05
2023-04-14T11:43:39.084Z,3.92
2023-04-14T11:46:08.955Z,3.99
2023-04-14T11:48:37.500Z,3.98
2023-04-14T11:51:05.161Z,3.96
2023-04-14T11:53:33.656Z,3.66
2023-04-14T11:56:01.637Z,3.52
2023-04-14T11:58:29.661Z,3.34
2023-04-14T12:00:59.744Z,3.32
2023-04-14T12:03:36.014Z,3.69
2023-04-14T12:06:04.075Z,3.51
2023-04-14T12:08:32.484Z,3.63
2023-04-14T12:11:15.436Z,4.04
2023-04-14T12:13:44.526Z,3.75
2023-04-14T12:16:12.791Z,3.50
2023-04-14T12:18:40.982Z,3.52
2023-04-14T12:21:11.693Z,3.76
2023-04-14T12:23:40.948Z,3.38
2023-04-14T12:26:15.130Z,3.57
2023-04-14T12:28:43.089Z,3.36
2023-04-14T12:31:11.744Z,3.38
2023-04-14T12:33:39.583Z,3.48
2023-04-14T12:36:14.320Z,3.28
2023-04-14T12:38:42.045Z,3.37
2023-04-14T12:41:11.126Z,3.26
2023-04-14T12:43:41.640Z,3.33
2023-04-14T12:46:09.410Z,3.19
2023-04-14T12:48:48.864Z,3.27
2023-04-14T12:51:18.874Z,3.00
2023-04-14T12:53:48.226Z,3.15
2023-04-14T12:56:17.945Z,3.42
2023-04-14T12:58:47.366Z,3.36
2023-04-14T13:01:19.721Z,3.16
2023-04-14T13:03:52.488Z,3.12
2023-04-14T13:06:22.981Z,2.96
2023-04-14T13:08:52.410Z,3.07
2023-04-14T13:11:21.564Z,2.83
2023-04-14T13:13:49.246Z,2.90
2023-04-14T13:16:18.084Z,2.88
2023-04-14T13:18:47.583Z,2.76
2023-04-14T13:21:15.589Z,2.76
2023-04-14T13:23:43.213Z,2.95
2023-04-14T13:26:11.143Z,2.94
2023-04-14T13:28:38.647Z,2.99
2023-04-14T13:31:06.271Z,2.95
2023-04-14T13:33:33.780Z,2.77
2023-04-14T13:36:04.513Z,2.79
2023-04-14T13:38:32.077Z,2.71
2023-04-14T13:40:59.899Z,2.60
2023-04-14T13:43:27.667Z,2.77
2023-04-14T13:45:58.848Z,2.53
2023-04-14T13:48:30.735Z,2.31
2023-04-14T13:50:59.784Z,2.08
2023-04-14T13:53:27.487Z,2.15
2023-04-14T13:55:55.283Z,2.20
2023-04-14T13:58:23.256Z,2.35
2023-04-14T14:00:50.965Z,2.32
2023-04-14T14:03:18.448Z,2.19
2023-04-14T14:05:46.168Z,2.05
2023-04-14T14:08:16.604Z,2.12
2023-04-14T14:10:44.145Z,2.09
2023-04-14T14:13:11.670Z,2.10
2023-04-14T14:16:37.152Z,2.21
2023-04-14T14:19:08.367Z,2.20
2023-04-14T14:21:36.132Z,2.21
2023-04-14T14:24:04.215Z,2.24
2023-04-14T14:26:32.086Z,2.18
2023-04-14T14:28:59.522Z,2.11
2023-04-14T14:31:27.090Z,2.26
2023-04-14T14:33:54.569Z,2.21
2023-04-14T14:36:22.022Z,2.24
2023-04-14T14:38:49.452Z,2.13
2023-04-14T14:41:17.000Z,2.16
2023-04-14T14:43:44.523Z,2.09
2023-04-14T14:46:12.065Z,2.05
2023-04-14T14:48:39.613Z,2.05
2023-04-14T14:51:07.218Z,2.06
2023-04-14T14:53:34.959Z,2.10
2023-04-14T14:56:02.572Z,1.96
2023-04-14T14:58:30.079Z,1.94
2023-04-14T15:00:57.501Z,1.64
2023-04-14T15:03:25.194Z,1.68
2023-04-14T15:05:52.953Z,1.64
2023-04-14T15:08:20.514Z,1.50
2023-04-14T15:10:47.920Z,1.61
2023-04-14T15:13:15.419Z,1.54
2023-04-14T15:15:42.962Z,1.62
2023-04-14T15:18:10.900Z,1.62
2023-04-14T15:20:38.442Z,1.60
2023-04-14T15:23:07.346Z,1.56
2023-04-14T15:25:34.778Z,1.38
2023-04-14T15:28:02.341Z,1.48
2023-04-14T15:30:29.900Z,1.45
2023-04-14T15:32:58.488Z,1.26
2023-04-14T15:35:26.715Z,1.33
2023-04-14T15:37:54.246Z,1.16
2023-04-14T15:40:21.729Z,1.28
2023-04-14T15:42:49.193Z,1.33
2023-04-14T15:45:16.701Z,1.27
2023-04-14T15:47:44.145Z,1.27
2023-04-14T15:50:13.058Z,1.27
2023-04-14T15:52:46.268Z,1.36
2023-04-14T16:04:18.441Z,1.37
2023-04-14T16:06:47.301Z,1.53
2023-04-14T16:09:15.234Z,1.51
2023-04-14T16:11:42.714Z,1.53
2023-04-14T16:14:10.323Z,1.44
2023-04-14T16:16:38.828Z,1.45
2023-04-14T16:19:06.726Z,1.48
2023-04-14T16:21:34.201Z,1.39
2023-04-14T16:24:02.035Z,1.45
2023-04-14T16:26:30.661Z,1.40
2023-04-14T16:28:58.146Z,1.31
2023-04-14T16:31:25.656Z,1.30
2023-04-14T16:33:53.110Z,1.24
2023-04-14T16:36:22.067Z,1.12
2023-04-14T16:38:51.187Z,1.16
2023-04-14T16:41:18.658Z,1.15
2023-04-14T16:43:46.224Z,1.14
2023-04-14T16:46:13.933Z,1.25
2023-04-14T16:48:41.892Z,1.25
2023-04-14T16:51:11.311Z,1.28
2023-04-14T16:53:39.290Z,1.26
2023-04-14T16:56:09.042Z,1.19
2023-04-14T16:58:38.375Z,1.15
2023-04-14T17:01:07.052Z,0.87
2023-04-14T17:03:34.856Z,0.83
2023-04-14T17:06:02.915Z,0.82
2023-04-14T17:08:30.540Z,0.82
2023-04-14T17:10:58.316Z,0.87
2023-04-14T17:13:27.236Z,0.83
2023-04-14T17:16:02.385Z,0.70
2023-04-14T17:18:35.787Z,0.61
2023-04-14T17:21:03.696Z,0.66
2023-04-14T17:23:31.202Z,0.71
2023-04-14T17:26:00.036Z,0.75
2023-04-14T17:28:27.794Z,0.73
2023-04-14T17:30:56.032Z,0.67
2023-04-14T17:33:27.625Z,0.55
2023-04-14T17:35:55.970Z,0.60
2023-04-14T17:38:23.822Z,0.51
2023-04-14T17:40:52.142Z,0.54
2023-04-14T17:43:19.618Z,0.45
2023-04-14T17:45:50.706Z,0.40
2023-04-14T17:48:18.232Z,0.38
2023-04-14T17:50:46.719Z,0.34
2023-04-14T17:53:16.528Z,0.46
2023-04-14T17:55:45.184Z,0.44
2023-04-14T17:58:12.735Z,0.45
2023-04-14T18:00:40.570Z,0.45
2023-04-14T18:03:08.346Z,0.33
2023-04-14T18:05:36.009Z,0.24
2023-04-14T18:08:03.968Z,0.26
2023-04-14T18:10:31.680Z,0.29
2023-04-14T18:12:59.882Z,0.33
2023-04-14T18:15:27.413Z,0.31
2023-04-14T18:17:55.906Z,0.30
2023-04-14T18:20:26.830Z,0.11
2023-04-14T18:23:02.269Z,0.07
2023-04-14T18:28:03.629Z,0.12
2023-04-14T18:30:31.690Z,0.07
2023-04-14T18:33:01.035Z,0.11
2023-04-14T18:35:29.490Z,0.12
2023-04-14T18:37:56.941Z,0.12
2023-04-14T18:40:26.485Z,-0.05
2023-04-14T18:42:55.522Z,0.03
2023-04-14T18:45:23.108Z,0.05
2023-04-14T18:47:51.110Z,0.14
2023-04-14T18:50:20.569Z,0.17
2023-04-14T18:52:48.136Z,0.20
2023-04-14T18:55:15.791Z,0.19
2023-04-14T18:57:43.265Z,0.27
2023-04-14T19:00:13.629Z,0.22
2023-04-14T19:02:41.533Z,0.19
2023-04-14T19:05:10.297Z,0.24
2023-04-14T19:07:37.912Z,0.22
2023-04-14T19:10:05.932Z,0.29
2023-04-14T19:12:33.609Z,0.25
2023-04-14T19:15:02.850Z,0.25
2023-04-14T19:17:34.542Z,0.27
2023-04-14T19:20:02.196Z,0.17
2023-04-14T19:22:30.684Z,0.22
2023-04-14T19:24:58.074Z,0.17
2023-04-14T19:27:25.652Z,0.25
2023-04-14T19:29:53.052Z,0.15
2023-04-14T19:32:20.699Z,-0.17
2023-04-14T19:34:48.459Z,-0.15
2023-04-14T19:37:16.139Z,-0.13
2023-04-14T19:39:43.504Z,-0.14
2023-04-14T19:42:11.060Z,-0.14
2023-04-14T19:44:38.519Z,-0.28
2023-04-14T19:47:06.368Z,-0.26
2023-04-14T19:49:34.119Z,-0.28
2023-04-14T19:52:01.949Z,-0.28
2023-04-14T19:54:29.737Z,-0.35
2023-04-14T19:56:57.367Z,-0.42
2023-04-14T19:59:25.025Z,-0.47
2023-04-14T20:01:52.482Z,-0.50
2023-04-14T20:04:20.994Z,-0.54
2023-04-14T20:06:48.642Z,-0.50
2023-04-14T20:09:16.247Z,-0.45
2023-04-14T20:11:43.910Z,-0.60
2023-04-14T20:14:11.586Z,-0.57
2023-04-14T20:16:39.165Z,-0.55
2023-04-14T20:19:06.648Z,-0.62
2023-04-14T20:21:34.148Z,-0.61
2023-04-14T20:24:02.216Z,-0.73
2023-04-14T20:26:29.749Z,-0.74
2023-04-14T20:28:57.323Z,-0.78
2023-04-14T20:31:25.823Z,-0.80
2023-04-14T20:33:53.251Z,-0.86
2023-04-14T20:36:20.958Z,-0.84
2023-04-14T20:38:48.551Z,-0.87
2023-04-14T20:41:15.975Z,-0.96
2023-04-14T20:43:43.892Z,-0.87
2023-04-14T20:46:11.521Z,-0.89
2023-04-14T20:48:39.191Z,-0.90
2023-04-14T20:51:06.809Z,-1.04
2023-04-14T20:53:35.341Z,-1.06
2023-04-14T20:56:02.781Z,-1.07
2023-04-14T20:58:30.277Z,-0.97
2023-04-14T21:00:57.804Z,-1.11
2023-04-14T21:03:25.618Z,-1.12
2023-04-14T21:05:53.807Z,-1.12
2023-04-14T21:08:21.632Z,-1.18
2023-04-14T21:11:15.595Z,-1.15
2023-04-14T21:15:28.150Z,-1.22
2023-04-14T21:16:26.138Z,-1.27
2023-04-14T21:18:53.625Z,-1.21
2023-04-14T21:21:21.720Z,-1.29
2023-04-14T21:23:49.231Z,-1.25
2023-04-14T21:26:17.051Z,-1.32
2023-04-14T21:28:44.573Z,-1.30
2023-04-14T21:31:12.090Z,-1.46
2023-04-14T21:33:41.991Z,-1.44
2023-04-14T21:36:12.198Z,-1.40
2023-04-14T21:38:39.922Z,-1.33
2023-04-14T21:41:10.535Z,-1.35
2023-04-14T21:43:41.022Z,-1.38
2023-04-14T21:46:08.760Z,-1.27
2023-04-14T21:48:36.260Z,-1.27
2023-04-14T21:51:03.914Z,-1.24
2023-04-14T21:53:32.270Z,-1.21
2023-04-14T21:56:09.959Z,-1.25
2023-04-14T21:58:39.852Z,-1.30
2023-04-14T22:01:08.150Z,-1.28
2023-04-14T22:03:37.864Z,-1.23
2023-04-14T22:06:05.873Z,-1.32
2023-04-14T22:08:33.348Z,-1.35
2023-04-14T22:11:00.775Z,-1.35
2023-04-14T22:13:28.809Z,-1.44
2023-04-14T22:15:56.935Z,-1.48
2023-04-14T22:18:24.461Z,-1.48
2023-04-14T22:20:51.979Z,-1.53
2023-04-14T22:23:19.567Z,-1.53
2023-04-14T22:25:48.216Z,-1.52
2023-04-14T22:28:15.777Z,-1.50
2023-04-14T22:30:43.439Z,-1.49
2023-04-14T22:33:10.927Z,-1.44
2023-04-14T22:35:39.220Z,-1.42
2023-04-14T22:38:07.276Z,-1.43
2023-04-14T22:40:34.673Z,-1.44
2023-04-14T22:43:08.790Z,-1.49
2023-04-14T22:45:37.932Z,-1.48
2023-04-14T22:48:07.319Z,-1.50
2023-04-14T22:50:36.943Z,-1.47
2023-04-14T22:53:05.675Z,-1.54
2023-04-14T22:55:33.711Z,-1.58
2023-04-14T22:58:01.252Z,-1.59
2023-04-14T23:00:28.904Z,-1.53
2023-04-14T23:02:56.608Z,-1.49
2023-04-14T23:05:24.625Z,-1.57
2023-04-14T23:07:51.983Z,-1.61
2023-04-14T23:10:19.455Z,-1.59
2023-04-14T23:12:47.205Z,-1.56
2023-04-14T23:15:14.838Z,-1.67
2023-04-14T23:17:42.348Z,-1.62
2023-04-14T23:20:10.187Z,-1.62
2023-04-14T23:22:37.895Z,-1.63
2023-04-14T23:25:05.942Z,-1.60
2023-04-14T23:27:33.316Z,-1.61
2023-04-14T23:30:00.869Z,-1.58
2023-04-14T23:32:28.312Z,-1.55
2023-04-14T23:34:55.894Z,-1.55
2023-04-14T23:37:24.131Z,-1.67
2023-04-14T23:39:51.744Z,-1.53
2023-04-14T23:42:19.210Z,-1.57
2023-04-14T23:44:46.925Z,-1.52
2023-04-14T23:47:14.938Z,-1.53
2023-04-14T23:49:42.354Z,-1.63
2023-04-14T23:52:09.863Z,-1.61
2023-04-14T23:54:37.688Z,-1.68
2023-04-14T23:57:05.193Z,-1.71
2023-04-14T23:59:32.977Z,-1.75
